Data for 10/24/2016

Time Sea-Level Adjusted Pressure Absolute Pressure Temperature Relative Humidity Dew Point   
(mb) (inHg) (mb) (inHg) (C) (F) (%) (C) (F)
00:05 1021 30.15 850 25.1 9 48.1 51 -0.7 30.7
00:10 1021 30.15 850 25.1 8.9 48 52 -0.5 31.1
00:15 1021 30.15 850 25.1 8.9 48 51 -0.6 30.9
00:20 1021 30.15 850 25.1 8.8 47.8 52 -0.5 31.1
00:25 1021 30.15 850 25.1 8.9 48 51 -0.5 31.1
00:30 1021 30.15 850 25.1 8.9 48 50 -0.9 30.4
00:35 1021 30.15 850 25.1 9 48.1 50 -0.8 30.5
00:40 1021 30.15 850 25.1 8.9 48 50 -1 30.1
00:45 1021 30.15 850 25.1 8.9 47.9 50 -0.8 30.5
00:50 1021 30.15 850 25.1 8.8 47.9 51 -0.9 30.4
00:55 1021 30.15 850 25.1 8.7 47.7 51 -0.7 30.7
01:00 1021 30.15 850 25.1 8.6 47.4 52 -0.8 30.6
01:05 1021 30.15 850 25.1 8.5 47.4 51 -0.9 30.3
01:10 1021 30.15 850 25.1 8.6 47.4 51 -1 30.3
01:15 1021 30.15 850 25.1 8.5 47.3 52 -0.9 30.4
01:20 1021 30.15 850 25.1 8.5 47.3 51 -0.9 30.3
01:25 1021 30.15 850 25.1 8.5 47.4 51 -1 30.3
01:30 1021 30.15 850 25.1 8.6 47.4 51 -1 30.2
01:35 1020 30.12 850 25.1 8.6 47.6 50 -1.1 30.1
01:40 1020 30.12 850 25.1 8.6 47.5 50 -1.2 29.9
01:45 1020 30.12 850 25.1 8.6 47.5 49 -1.5 29.3
01:50 1020 30.12 850 25.1 8.6 47.5 49 -1.3 29.6
01:55 1020 30.12 850 25.1 8.6 47.5 48 -1.6 29
02:00 1020 30.12 850 25.1 8.5 47.3 50 -1.3 29.6
02:05 1020 30.12 849 25.07 8.3 46.9 49 -1.7 29
02:10 1020 30.12 849 25.07 8.2 46.8 50 -1.6 29.2
02:15 1020 30.12 849 25.07 8.2 46.8 50 -1.5 29.3
02:20 1020 30.12 849 25.07 8.3 46.9 49 -1.7 29
02:25 1020 30.12 849 25.07 8.4 47.1 49 -1.7 28.9
02:30 1020 30.12 849 25.07 8.6 47.4 48 -1.8 28.8
02:35 1020 30.12 849 25.07 8.7 47.7 48 -1.8 28.8
02:40 1020 30.12 849 25.07 8.8 47.8 47 -2 28.4
02:45 1020 30.12 849 25.07 8.8 47.8 46 -2.2 28.1
02:50 1020 30.12 849 25.07 8.8 47.9 46 -2.1 28.3
02:55 1020 30.12 849 25.07 8.8 47.8 46 -2.1 28.2
03:00 1020 30.12 849 25.07 8.6 47.6 46 -2.2 28.1
03:05 1020 30.12 849 25.07 8.6 47.5 46 -2.2 28
03:10 1020 30.12 849 25.07 8.6 47.5 46 -2.2 28
03:15 1020 30.12 849 25.07 8.5 47.2 47 -2.2 28.1
03:20 1020 30.12 849 25.07 8.4 47 46 -2.4 27.6
03:25 1020 30.12 849 25.07 8.4 47.1 46 -2.4 27.6
03:30 1020 30.12 849 25.07 8.4 47.1 47 -2.4 27.7
03:35 1020 30.12 849 25.07 8.3 46.9 47 -2.3 27.8
03:40 1020 30.12 849 25.07 8.2 46.7 47 -2.5 27.5
03:45 1020 30.12 849 25.07 8.2 46.7 47 -2.4 27.7
03:50 1020 30.12 849 25.07 8.3 46.9 47 -2.5 27.5
03:55 1020 30.12 849 25.07 8.4 47 45 -2.7 27.1
04:00 1020 30.12 849 25.07 8.6 47.4 45 -2.8 27
04:05 1020 30.12 849 25.07 8.5 47.4 45 -2.8 26.9
04:10 1020 30.12 849 25.07 8.6 47.5 45 -2.7 27.2
04:15 1020 30.12 849 25.07 8.5 47.2 44 -3.1 26.4
04:20 1020 30.12 849 25.07 8.8 47.9 45 -2.6 27.4
04:25 1020 30.12 849 25.07 8.5 47.2 45 -2.8 26.9
04:30 1020 30.12 849 25.07 8.5 47.4 44 -3 26.7
04:35 1020 30.12 849 25.07 8.5 47.3 44 -2.9 26.8
04:40 1020 30.12 849 25.07 8.5 47.3 45 -2.8 26.9
04:45 1020 30.12 849 25.07 8.2 46.8 45 -3 26.7
04:50 1020 30.12 849 25.07 8.1 46.5 45 -3 26.5
04:55 1020 30.12 849 25.07 8.3 46.9 44 -3.2 26.2
05:00 1019 30.09 849 25.07 8.3 46.9 45 -3 26.6
05:05 1019 30.09 849 25.07 8.2 46.7 45 -2.9 26.8
05:10 1019 30.09 849 25.07 8 46.5 46 -2.8 26.9
05:15 1020 30.12 849 25.07 8 46.4 46 -3 26.6
05:20 1019 30.09 849 25.07 8.2 46.7 44 -3.5 25.8
05:25 1019 30.09 849 25.07 8.8 47.8 42 -3.5 25.8
05:30 1019 30.09 849 25.07 8.8 47.8 43 -3 26.6
05:35 1019 30.09 849 25.07 8.8 47.9 42 -3.4 25.8
05:40 1019 30.09 849 25.07 8.9 48 42 -3.3 26
05:45 1019 30.09 848 25.04 8.6 47.5 43 -3.1 26.4
05:50 1019 30.09 848 25.04 8.4 47.2 43 -3.4 25.8
05:55 1019 30.09 848 25.04 8.5 47.3 43 -3.4 26
06:00 1019 30.09 848 25.04 8.6 47.4 43 -3.4 25.9
06:05 1019 30.09 848 25.04 8.6 47.4 43 -3.4 25.8
06:10 1019 30.09 848 25.04 8.6 47.5 42 -3.5 25.7
06:15 1019 30.09 848 25.04 8.6 47.4 43 -3.4 25.8
06:20 1019 30.09 848 25.04 8.6 47.5 42 -3.7 25.4
06:25 1019 30.09 848 25.04 8.7 47.6 42 -3.4 25.9
06:30 1019 30.09 848 25.04 8.5 47.4 42 -3.5 25.6
06:35 1019 30.09 848 25.04 8.4 47.2 43 -3.4 25.9
06:40 1019 30.09 848 25.04 8.3 47 44 -3.3 26
06:45 1019 30.09 848 25.04 8.3 46.9 43 -3.5 25.7
06:50 1019 30.09 848 25.04 8.3 46.9 43 -3.5 25.7
06:55 1019 30.09 848 25.04 8.5 47.2 42 -3.6 25.5
07:00 1019 30.09 848 25.04 8.6 47.4 43 -3.3 26
07:05 1019 30.09 848 25.04 8.5 47.3 42 -3.5 25.7
07:10 1019 30.09 848 25.04 8.5 47.2 43 -3.4 25.8
07:15 1019 30.09 848 25.04 8.4 47.1 43 -3.6 25.6
07:20 1019 30.09 848 25.04 8.3 46.9 43 -3.7 25.4
07:25 1019 30.09 848 25.04 8 46.4 43 -3.6 25.5
07:30 1019 30.09 848 25.04 8 46.4 44 -3.5 25.7
07:35 1019 30.09 848 25.04 8 46.4 45 -3.3 26.1
07:40 1019 30.09 848 25.04 7.8 46.1 46 -3.1 26.4
07:45 1019 30.09 848 25.04 7.7 45.9 47 -2.9 26.7
07:50 1019 30.09 848 25.04 7.5 45.5 48 -2.7 27.1
07:55 1019 30.09 848 25.04 7.2 45 49 -2.7 27.1
08:00 1019 30.09 848 25.04 7.3 45.2 47 -3.3 26.1
08:05 1019 30.09 848 25.04 7.8 46 45 -3.3 26.1
08:10 1019 30.09 848 25.04 8.2 46.7 47 -2.5 27.6
08:15 1019 30.09 848 25.04 7.8 46 51 -1.6 29.1
08:20 1019 30.09 849 25.07 7.6 45.6 51 -1.8 28.7
08:25 1019 30.09 848 25.04 7.5 45.6 53 -1.5 29.3
08:30 1019 30.09 849 25.07 7.3 45.2 52 -1.9 28.6
08:35 1019 30.09 849 25.07 7.5 45.5 53 -1.3 29.6
08:40 1020 30.12 849 25.07 7.6 45.6 54 -1.2 29.8
08:45 1020 30.12 849 25.07 7.7 45.8 54 -1.1 30.1
08:50 1020 30.12 849 25.07 7.6 45.6 54 -1 30.1
08:55 1020 30.12 849 25.07 7.4 45.4 55 -0.9 30.3
09:00 1020 30.12 849 25.07 7.2 44.9 56 -1 30.1
09:05 1020 30.12 849 25.07 7.1 44.7 58 -0.7 30.7
09:10 1020 30.12 849 25.07 6.5 43.6 59 -0.8 30.5
09:15 1020 30.12 849 25.07 6.5 43.7 58 -1.1 30.1
09:20 1020 30.12 849 25.07 6.7 44 58 -1 30.1
09:25 1020 30.12 849 25.07 6.7 44 58 -1 30.2
09:30 1020 30.12 849 25.07 6.9 44.4 57 -0.9 30.3
09:35 1020 30.12 849 25.07 7 44.5 57 -1 30.1
09:40 1019 30.09 849 25.07 7.2 44.9 55 -1.2 29.9
09:45 1020 30.12 849 25.07 7.6 45.6 56 -0.7 30.7
09:50 1019 30.09 849 25.07 7.6 45.6 55 -0.9 30.5
09:55 1019 30.09 848 25.04 8.2 46.8 46 -2.6 27.3
10:00 1019 30.09 848 25.04 8.7 47.6 53 -0.5 31.1
10:15 1019 30.09 849 25.07 9.6 49.2 48 -1 30.2
10:05 1019 30.09 849 25.07 8.4 47.1 54 -0.2 31.6
10:10 1019 30.09 849 25.07 8.7 47.7 48 -1.7 28.9
10:20 1019 30.09 849 25.07 10 50 45 -1.2 29.9
10:25 1019 30.09 849 25.07 10.3 50.5 43 -1.8 28.8
10:30 1019 30.09 849 25.07 11 51.8 41 -1.7 28.9
10:35 1019 30.09 849 25.07 11.4 52.6 41 -1.3 29.7
10:40 1019 30.09 849 25.07 11.8 53.3 39 -1.6 29.1
10:45 1019 30.09 849 25.07 12.5 54.4 38 -1.4 29.5
10:50 1019 30.09 849 25.07 12.7 54.9 38 -1.1 30
10:55 1019 30.09 849 25.07 13 55.3 38 -1.1 30.1
11:00 1019 30.09 848 25.04 13.1 55.6 40 -0.1 31.9
11:05 1019 30.09 848 25.04 12.8 55 42 0.2 32.4
11:10 1019 30.09 848 25.04 12.3 54.2 45 0.7 33.2
11:15 1019 30.09 848 25.04 12.2 53.9 44 0.5 32.9
11:20 1019 30.09 848 25.04 12.3 54.2 45 0.8 33.4
11:25 1019 30.09 848 25.04 12.4 54.3 45 0.9 33.5
11:30 1019 30.09 848 25.04 12.5 54.5 43 0.3 32.6
11:35 1019 30.09 848 25.04 12.8 55.1 44 1.1 33.9
11:40 1019 30.09 848 25.04 12.9 55.1 46 1.5 34.7
11:45 1019 30.09 848 25.04 12.7 54.9 45 1.1 34
11:50 1019 30.09 848 25.04 12.8 55 47 1.7 35
11:55 1019 30.09 848 25.04 12.7 54.8 48 2 35.7
12:00 1019 30.09 848 25.04 12.6 54.6 51 2.7 36.9
12:05 1019 30.09 848 25.04 12.6 54.6 50 2.4 36.3
12:10 1019 30.09 848 25.04 12.5 54.5 50 2.4 36.4
12:15 1019 30.09 848 25.04 12.8 55 47 1.9 35.5
12:20 1019 30.09 848 25.04 13.2 55.7 48 2.4 36.3
12:25 1019 30.09 848 25.04 13.4 56.1 49 2.9 37.2
12:30 1019 30.09 848 25.04 13.4 56 51 3.5 38.2
12:35 1019 30.09 848 25.04 13.4 56.2 50 3.4 38.2
12:40 1019 30.09 848 25.04 13.5 56.4 51 3.5 38.4
12:45 1019 30.09 848 25.04 13.4 56.1 46 2.1 35.7
12:50 1019 30.09 848 25.04 13.6 56.4 44 1.7 35.1
12:55 1019 30.09 848 25.04 14.1 57.4 46 2.8 37
13:00 1018 30.06 848 25.04 14.5 58 47 3.4 38
13:05 1018 30.06 848 25.04 14.8 58.6 42 2.2 36
13:10 1018 30.06 848 25.04 15.4 59.6 44 3.4 38.1
13:15 1018 30.06 848 25.04 15.1 59.2 45 3.4 38
13:20 1018 30.06 848 25.04 15 59.1 44 2.9 37.2
13:25 1018 30.06 848 25.04 15.3 59.5 44 3.2 37.7
13:30 1018 30.06 848 25.04 15.3 59.6 46 3.9 39
13:35 1018 30.06 847 25.01 15.2 59.3 45 3.3 37.9
13:40 1018 30.06 847 25.01 15.3 59.6 50 5.1 41.2
13:45 1018 30.06 847 25.01 15.2 59.4 45 3.6 38.4
13:50 1018 30.06 847 25.01 15.2 59.4 46 3.7 38.7
13:55 1018 30.06 847 25.01 15.3 59.6 45 3.6 38.4
14:00 1018 30.06 847 25.01 15.2 59.4 45 3.6 38.4
14:05 1018 30.06 847 25.01 15.2 59.4 44 3.3 37.9
14:10 1018 30.06 847 25.01 15 59.1 47 3.9 39.1
14:15 1018 30.06 847 25.01 14.8 58.7 47 3.6 38.5
14:20 1018 30.06 847 25.01 14.8 58.6 47 3.7 38.7
14:25 1018 30.06 847 25.01 14.8 58.6 47 3.8 38.8
14:30 1018 30.06 847 25.01 14.8 58.6 46 3.5 38.3
14:35 1018 30.06 847 25.01 15.1 59.1 45 3.5 38.2
14:40 1018 30.06 847 25.01 15.2 59.3 45 3.5 38.2
14:45 1018 30.06 847 25.01 15.2 59.4 45 3.5 38.4
14:50 1018 30.06 847 25.01 15.2 59.4 46 3.7 38.7
14:55 1018 30.06 847 25.01 15.1 59.2 46 3.6 38.5
15:00 1018 30.06 847 25.01 15 59 46 3.6 38.5
15:05 1018 30.06 847 25.01 14.9 58.9 47 3.8 38.8
15:10 1018 30.06 847 25.01 14.9 58.8 48 4.1 39.4
15:15 1018 30.06 847 25.01 14.9 58.9 48 4.1 39.3
15:20 1018 30.06 847 25.01 14.7 58.5 49 4.2 39.5
15:25 1018 30.06 847 25.01 14.6 58.3 49 4 39.3
15:30 1018 30.06 847 25.01 14.6 58.3 49 4.1 39.4
15:35 1018 30.06 847 25.01 14.7 58.4 49 4.2 39.6
15:40 1018 30.06 847 25.01 14.7 58.5 47 3.7 38.7
15:45 1018 30.06 847 25.01 14.8 58.6 48 4.1 39.4
15:50 1018 30.06 847 25.01 14.8 58.6 48 4 39.1
15:55 1018 30.06 847 25.01 14.8 58.6 48 4 39.1
16:00 1018 30.06 847 25.01 14.7 58.5 48 4 39.2
16:05 1018 30.06 847 25.01 14.6 58.3 49 4 39.3
16:10 1017 30.03 847 25.01 14.5 58.2 49 4 39.1
16:15 1017 30.03 846 24.98 14.4 58 49 4 39.2
16:20 1017 30.03 846 24.98 14.4 57.8 49 3.7 38.7
16:25 1017 30.03 846 24.98 14.4 57.9 50 4.1 39.4
16:30 1017 30.03 846 24.98 14.5 58.1 48 3.6 38.5
16:35 1017 30.03 846 24.98 14.8 58.6 48 4 39.1
16:40 1017 30.03 846 24.98 14.4 58 50 4.3 39.7
16:45 1017 30.03 846 24.98 14.1 57.3 51 4.1 39.3
16:50 1017 30.03 846 24.98 14 57.1 50 3.9 39
16:55 1017 30.03 846 24.98 14 57.2 50 3.9 38.9
17:00 1017 30.03 846 24.98 13.9 57.1 50 3.9 38.9
17:05 1017 30.03 846 24.98 13.9 56.9 51 3.9 39
17:10 1017 30.03 846 24.98 13.8 56.8 50 3.7 38.7
17:15 1017 30.03 846 24.98 13.7 56.6 51 3.8 38.9
17:20 1017 30.03 846 24.98 13.5 56.3 52 3.9 39
17:25 1017 30.03 846 24.98 13.3 56 52 3.9 38.9
17:30 1017 30.03 846 24.98 13.2 55.7 53 3.9 39
17:35 1017 30.03 846 24.98 13.1 55.5 53 3.9 38.9
17:40 1017 30.03 846 24.98 13 55.4 54 4 39.1
17:45 1017 30.03 846 24.98 12.9 55.3 54 3.9 39
17:50 1017 30.03 846 24.98 12.9 55.1 54 4 39.1
17:55 1017 30.03 846 24.98 12.7 54.9 55 3.9 39.1
18:00 1017 30.03 846 24.98 12.6 54.7 55 3.9 39.1
18:05 1017 30.03 846 24.98 12.6 54.7 55 3.9 38.9
18:10 1017 30.03 846 24.98 12.6 54.6 55 3.7 38.7
18:15 1017 30.03 846 24.98 12.8 55 55 4 39.2
18:20 1017 30.03 846 24.98 12.5 54.4 56 4 39.2
18:25 1017 30.03 846 24.98 12.5 54.4 55 3.8 38.9
18:30 1017 30.03 846 24.98 12.5 54.6 56 4 39.1
18:35 1017 30.03 846 24.98 12.6 54.6 54 3.7 38.6
18:40 1017 30.03 846 24.98 12.7 54.9 55 4 39.1
18:45 1017 30.03 846 24.98 12.6 54.8 56 4 39.3
18:50 1017 30.03 846 24.98 12.5 54.5 56 4 39.2
18:55 1017 30.03 846 24.98 12.3 54.2 57 4.1 39.3
19:00 1017 30.03 847 25.01 12.4 54.2 55 3.7 38.6
19:05 1017 30.03 847 25.01 12.5 54.5 56 4 39.2
19:10 1017 30.03 847 25.01 12.5 54.4 56 4.1 39.4
19:15 1018 30.06 847 25.01 12.5 54.4 57 4.3 39.8
19:20 1018 30.06 847 25.01 12.5 54.6 56 4.1 39.5
19:25 1018 30.06 847 25.01 12.4 54.3 63 5.5 42
19:30 1018 30.06 847 25.01 11.7 53 69 6.3 43.3
19:35 1018 30.06 847 25.01 11.3 52.4 71 6.3 43.4
19:40 1018 30.06 847 25.01 10.9 51.7 74 6.5 43.7
19:45 1018 30.06 847 25.01 10.6 51 75 6.3 43.4
19:50 1018 30.06 847 25.01 10.4 50.8 75 6.2 43.1
19:55 1018 30.06 847 25.01 10.4 50.7 77 6.6 43.8
20:00 1018 30.06 847 25.01 10.2 50.3 79 6.7 44
20:05 1018 30.06 847 25.01 9.8 49.7 81 6.6 44
20:10 1018 30.06 847 25.01 9.8 49.6 81 6.8 44.2
20:15 1018 30.06 847 25.01 9.6 49.3 83 6.9 44.5
20:20 1018 30.06 847 25.01 9.5 49.1 83 6.8 44.2
20:25 1018 30.06 847 25.01 9.5 49.1 81 6.4 43.6
20:30 1018 30.06 847 25.01 9.6 49.2 83 6.9 44.3
20:35 1018 30.06 847 25.01 9.6 49.3 80 6.4 43.5
20:40 1018 30.06 847 25.01 9.8 49.7 79 6.5 43.6
20:45 1018 30.06 847 25.01 9.9 49.8 79 6.5 43.7
20:50 1018 30.06 847 25.01 9.9 49.9 80 6.6 44
20:55 1018 30.06 847 25.01 9.9 49.8 80 6.6 43.9
21:00 1018 30.06 847 25.01 9.7 49.5 82 6.7 44.1
21:05 1018 30.06 847 25.01 9.6 49.3 81 6.5 43.7
21:10 1018 30.06 847 25.01 9.6 49.3 80 6.4 43.5
21:15 1018 30.06 847 25.01 9.7 49.4 79 6.2 43.2
21:20 1018 30.06 847 25.01 9.7 49.5 79 6.2 43.2
21:25 1018 30.06 847 25.01 9.7 49.5 79 6.2 43.2
21:30 1017 30.03 847 25.01 9.6 49.3 80 6.2 43.2
21:35 1017 30.03 847 25.01 9.6 49.2 79 6.1 42.9
21:40 1017 30.03 847 25.01 9.6 49.3 78 6 42.7
21:45 1017 30.03 847 25.01 9.6 49.3 77 5.8 42.5
21:50 1017 30.03 847 25.01 9.5 49.2 77 5.8 42.4
21:55 1017 30.03 847 25.01 9.6 49.2 77 5.7 42.2
22:00 1017 30.03 847 25.01 9.7 49.4 76 5.7 42.2
22:05 1017 30.03 847 25.01 9.6 49.2 77 5.7 42.3
22:10 1017 30.03 847 25.01 9.6 49.2 75 5.4 41.7
22:15 1017 30.03 847 25.01 9.5 49.1 75 5.4 41.7
22:20 1017 30.03 847 25.01 9.4 49 76 5.4 41.7
22:25 1017 30.03 846 24.98 9.3 48.8 76 5.4 41.7
22:30 1017 30.03 846 24.98 9.2 48.6 77 5.3 41.6
22:35 1017 30.03 846 24.98 9.1 48.4 77 5.3 41.5
22:40 1017 30.03 846 24.98 9.1 48.3 77 5.2 41.4
22:45 1017 30.03 846 24.98 9 48.2 77 5.3 41.5
22:50 1017 30.03 846 24.98 8.8 47.9 78 5.2 41.3
22:55 1017 30.03 847 25.01 8.8 47.9 77 5 41
23:00 1017 30.03 847 25.01 8.9 47.9 77 5.1 41.1
23:05 1017 30.03 847 25.01 8.8 47.9 77 5 41
23:10 1017 30.03 847 25.01 8.8 47.9 76 4.9 40.8
23:15 1017 30.03 847 25.01 8.9 48 76 4.9 40.9
23:20 1017 30.03 847 25.01 8.9 48 76 4.9 40.8
23:25 1017 30.03 847 25.01 8.9 48 76 4.9 40.8
23:30 1018 30.06 847 25.01 8.9 47.9 76 4.9 40.9
23:35 1018 30.06 847 25.01 8.9 47.9 76 4.9 40.8
23:40 1018 30.06 847 25.01 8.9 47.9 76 4.9 40.7
23:45 1018 30.06 847 25.01 9 48.2 76 5.1 41.1
23:50 1018 30.06 847 25.01 9 48.3 77 5.2 41.3
23:55 1018 30.06 847 25.01 9 48.1 77 5.2 41.4
24:00 1018 30.06 847 25.01 8.9 48 75 4.8 40.7